createdAt,value
2018-09-28T00:00:22.670Z,95.41
2018-09-28T00:01:22.648Z,95.51
2018-09-28T00:02:22.630Z,94.93
2018-09-28T00:03:22.615Z,94.93
2018-09-28T00:04:22.588Z,94.65
2018-09-28T00:05:22.570Z,94.74
2018-09-28T00:06:22.555Z,94.27
2018-09-28T00:07:22.533Z,94.17
2018-09-28T00:08:22.514Z,94.36
2018-09-28T00:09:22.498Z,93.41
2018-09-28T00:10:22.470Z,93.21
2018-09-28T00:11:22.456Z,93.02
2018-09-28T00:12:22.430Z,94.46
2018-09-28T00:13:22.411Z,94.27
2018-09-28T00:14:22.398Z,95.12
2018-09-28T00:15:22.375Z,97.03
2018-09-28T00:16:22.353Z,96.84
2018-09-28T00:17:22.331Z,96.46
2018-09-28T00:18:22.312Z,97.89
2018-09-28T00:19:22.292Z,99.71
2018-09-28T00:20:22.283Z,99.99
2018-09-28T00:21:22.257Z,99.99
2018-09-28T00:22:22.238Z,99.99
2018-09-28T00:23:22.216Z,99.99
2018-09-28T00:24:22.198Z,99.99
2018-09-28T00:25:22.173Z,99.99
2018-09-28T00:26:22.154Z,99.99
2018-09-28T00:27:22.133Z,99.99
2018-09-28T00:28:22.121Z,99.99
2018-09-28T00:29:22.098Z,99.99
2018-09-28T00:30:22.078Z,99.99
2018-09-28T00:31:22.062Z,99.99
2018-09-28T00:32:22.034Z,99.99
2018-09-28T00:33:22.014Z,99.99
2018-09-28T00:34:21.992Z,99.99
2018-09-28T00:35:21.977Z,99.99
2018-09-28T00:36:21.961Z,99.99
2018-09-28T00:37:21.935Z,99.99
2018-09-28T00:38:21.926Z,98.66
2018-09-28T00:39:21.899Z,99.52
2018-09-28T00:40:21.880Z,99.52
2018-09-28T00:41:21.860Z,99.23
2018-09-28T00:42:21.838Z,99.33
2018-09-28T00:43:21.813Z,98.66
2018-09-28T00:44:21.796Z,99.04
2018-09-28T00:45:21.779Z,98.75
2018-09-28T00:46:21.758Z,98.28
2018-09-28T00:47:21.738Z,98.75
2018-09-28T00:48:21.724Z,98.13
2018-09-28T00:49:21.699Z,97.94
2018-09-28T00:50:21.678Z,97.08
2018-09-28T00:51:21.658Z,96.80
2018-09-28T00:52:21.637Z,96.51
2018-09-28T00:53:21.625Z,96.03
2018-09-28T00:54:21.594Z,96.42
2018-09-28T00:55:21.575Z,96.42
2018-09-28T00:56:21.560Z,96.22
2018-09-28T00:57:21.536Z,96.22
2018-09-28T00:58:21.514Z,96.03
2018-09-28T00:59:21.497Z,95.75
2018-09-28T01:00:21.480Z,96.32
2018-09-28T01:01:21.460Z,96.32
2018-09-28T01:02:21.436Z,96.03
2018-09-28T01:03:21.420Z,96.22
2018-09-28T01:04:21.398Z,95.56
2018-09-28T01:05:21.385Z,95.75
2018-09-28T01:06:21.360Z,95.98
2018-09-28T01:07:21.333Z,95.98
2018-09-28T01:08:21.318Z,96.56
2018-09-28T01:09:21.293Z,96.75
2018-09-28T01:10:21.284Z,96.66
2018-09-28T01:11:21.261Z,96.37
2018-09-28T01:12:21.236Z,96.84
2018-09-28T01:13:21.212Z,96.84
2018-09-28T01:14:21.194Z,97.32
2018-09-28T01:15:21.172Z,97.22
2018-09-28T01:16:21.152Z,96.94
2018-09-28T01:17:21.131Z,96.80
2018-09-28T01:18:21.117Z,96.89
2018-09-28T01:19:21.094Z,97.42
2018-09-28T01:20:21.074Z,96.84
2018-09-28T01:21:21.054Z,96.89
2018-09-28T01:22:21.036Z,97.08
2018-09-28T01:23:21.014Z,96.98
2018-09-28T01:24:20.993Z,96.89
2018-09-28T01:25:20.972Z,97.75
2018-09-28T01:26:20.948Z,98.32
2018-09-28T01:27:20.928Z,97.75
2018-09-28T01:28:20.914Z,97.46
2018-09-28T01:29:20.890Z,98.70
2018-09-28T01:30:20.866Z,98.13
2018-09-28T01:31:20.849Z,98.32
2018-09-28T01:32:20.835Z,98.03
2018-09-28T01:33:20.810Z,98.99
2018-09-28T01:34:20.792Z,99.08
2018-09-28T01:35:20.764Z,98.32
2018-09-28T01:36:20.746Z,99.46
2018-09-28T01:37:20.722Z,99.08
2018-09-28T01:38:20.708Z,98.99
2018-09-28T01:39:20.688Z,98.70
2018-09-28T01:40:20.668Z,98.51
2018-09-28T01:41:20.642Z,98.99
2018-09-28T01:42:20.620Z,98.13
2018-09-28T01:43:20.603Z,98.03
2018-09-28T01:44:20.587Z,97.56
2018-09-28T01:45:20.562Z,98.42
2018-09-28T01:46:20.541Z,98.51
2018-09-28T01:47:20.522Z,98.32
2018-09-28T01:48:20.504Z,98.46
2018-09-28T01:49:20.478Z,98.13
2018-09-28T01:50:20.457Z,98.61
2018-09-28T01:51:20.435Z,98.08
2018-09-28T01:52:20.419Z,98.36
2018-09-28T01:53:20.395Z,98.61
2018-09-28T01:54:20.376Z,98.61
2018-09-28T01:55:20.357Z,98.90
2018-09-28T01:56:20.331Z,97.08
2018-09-28T01:57:20.315Z,96.84
2018-09-28T01:58:20.290Z,96.80
2018-09-28T01:59:20.272Z,97.56
2018-09-28T02:00:20.250Z,97.66
2018-09-28T02:01:20.231Z,97.13
2018-09-28T02:02:20.210Z,98.08
2018-09-28T02:03:20.189Z,97.61
2018-09-28T02:04:20.164Z,97.70
2018-09-28T02:05:20.144Z,98.56
2018-09-28T02:06:20.125Z,99.32
2018-09-28T02:07:20.106Z,99.32
2018-09-28T02:08:20.086Z,99.04
2018-09-28T02:09:20.063Z,99.22
2018-09-28T02:10:20.042Z,99.04
2018-09-28T02:11:20.022Z,98.94
2018-09-28T02:12:20.044Z,99.22
2018-09-28T02:13:19.979Z,99.32
2018-09-28T02:14:19.960Z,98.46
2018-09-28T02:15:19.938Z,98.36
2018-09-28T02:16:19.918Z,97.51
2018-09-28T02:17:19.895Z,97.13
2018-09-28T02:18:19.875Z,97.51
2018-09-28T02:19:19.860Z,97.03
2018-09-28T02:20:19.832Z,97.32
2018-09-28T02:21:19.812Z,97.03
2018-09-28T02:22:19.790Z,96.94
2018-09-28T02:23:19.774Z,96.46
2018-09-28T02:24:19.747Z,97.32
2018-09-28T02:25:19.725Z,97.13
2018-09-28T02:26:19.711Z,97.22
2018-09-28T02:27:19.687Z,96.65
2018-09-28T02:28:19.667Z,96.56
2018-09-28T02:29:19.646Z,96.84
2018-09-28T02:30:19.620Z,96.56
2018-09-28T02:31:19.603Z,96.65
2018-09-28T02:32:19.579Z,96.75
2018-09-28T02:33:19.560Z,96.75
2018-09-28T02:34:19.545Z,97.41
2018-09-28T02:35:19.518Z,96.84
2018-09-28T02:36:19.501Z,96.75
2018-09-28T02:37:19.479Z,97.22
2018-09-28T02:38:19.453Z,97.32
2018-09-28T02:39:19.434Z,97.51
2018-09-28T02:40:19.413Z,98.56
2018-09-28T02:41:19.391Z,98.27
2018-09-28T02:42:19.369Z,97.61
2018-09-28T02:43:19.349Z,97.51
2018-09-28T02:44:19.333Z,99.32
2018-09-28T02:45:19.311Z,99.70
2018-09-28T02:46:19.283Z,99.80
2018-09-28T02:47:19.273Z,99.51
2018-09-28T02:48:19.242Z,99.99
2018-09-28T02:49:19.223Z,99.99
2018-09-28T02:50:19.203Z,99.99
2018-09-28T02:51:19.179Z,99.70
2018-09-28T02:52:19.160Z,99.32
2018-09-28T02:53:19.140Z,99.99
2018-09-28T02:54:19.118Z,99.99
2018-09-28T02:55:19.095Z,99.99
2018-09-28T02:56:19.077Z,99.99
2018-09-28T02:57:19.051Z,99.99
2018-09-28T02:58:19.033Z,99.99
2018-09-28T02:59:19.012Z,99.99
2018-09-28T03:00:18.993Z,99.99
2018-09-28T03:01:18.971Z,99.99
2018-09-28T03:02:18.953Z,99.99
2018-09-28T03:03:18.928Z,99.99
2018-09-28T03:04:18.906Z,99.99
2018-09-28T03:05:18.885Z,99.60
2018-09-28T03:06:18.878Z,99.22
2018-09-28T03:07:18.841Z,98.94
2018-09-28T03:08:18.823Z,98.85
2018-09-28T03:09:18.800Z,99.32
2018-09-28T03:10:18.777Z,99.32
2018-09-28T03:11:18.758Z,99.99
2018-09-28T03:12:18.736Z,99.99
2018-09-28T03:13:18.719Z,99.99
2018-09-28T03:14:18.695Z,99.99
2018-09-28T03:15:18.677Z,99.99
2018-09-28T03:16:18.654Z,99.99
2018-09-28T03:17:18.634Z,99.99
2018-09-28T03:18:18.615Z,99.99
2018-09-28T03:19:18.592Z,99.99
2018-09-28T03:20:18.572Z,99.89
2018-09-28T03:21:18.555Z,99.51
2018-09-28T03:22:18.523Z,99.99
2018-09-28T03:23:18.511Z,99.89
2018-09-28T03:24:18.487Z,99.99
2018-09-28T03:25:18.462Z,99.99
2018-09-28T03:26:18.456Z,99.99
2018-09-28T03:27:18.419Z,99.99
2018-09-28T03:28:18.399Z,99.99
2018-09-28T03:29:18.374Z,99.99
2018-09-28T03:30:18.355Z,99.99
2018-09-28T03:31:18.339Z,99.99
2018-09-28T03:32:18.321Z,99.99
2018-09-28T03:33:18.294Z,99.99
2018-09-28T03:34:18.269Z,99.99
2018-09-28T03:35:18.248Z,99.99
2018-09-28T03:36:18.228Z,99.99
2018-09-28T03:37:18.206Z,99.99
2018-09-28T03:38:18.187Z,99.99
2018-09-28T03:39:18.165Z,99.99
2018-09-28T03:40:18.145Z,99.99
2018-09-28T03:41:18.122Z,99.99
2018-09-28T03:42:18.111Z,99.99
2018-09-28T03:43:18.080Z,99.99
2018-09-28T03:44:18.063Z,99.99
2018-09-28T03:45:18.038Z,99.99
2018-09-28T03:46:18.018Z,99.99
2018-09-28T03:47:17.998Z,99.99
2018-09-28T03:48:17.979Z,99.99
2018-09-28T03:49:17.954Z,99.99
2018-09-28T03:50:17.936Z,99.99
2018-09-28T03:51:17.910Z,99.99
2018-09-28T03:52:17.891Z,99.99
2018-09-28T03:53:17.867Z,99.99
2018-09-28T03:54:17.852Z,99.99
2018-09-28T03:55:17.826Z,99.99
2018-09-28T03:56:17.803Z,99.99
2018-09-28T03:57:17.791Z,99.99
2018-09-28T03:58:17.771Z,99.99
2018-09-28T03:59:17.747Z,99.99
2018-09-28T04:00:17.721Z,99.99
2018-09-28T04:01:17.700Z,99.99
2018-09-28T04:02:17.679Z,99.99
2018-09-28T04:03:17.658Z,99.99
2018-09-28T04:04:17.638Z,99.99
2018-09-28T04:05:17.618Z,99.99
2018-09-28T04:06:17.589Z,99.99
2018-09-28T04:07:17.580Z,99.99
2018-09-28T04:08:17.546Z,99.99
2018-09-28T04:09:17.531Z,99.99
2018-09-28T04:10:17.509Z,99.99
2018-09-28T04:11:17.485Z,99.99
2018-09-28T04:12:17.473Z,99.99
2018-09-28T04:13:17.442Z,99.99
2018-09-28T04:14:17.421Z,99.99
2018-09-28T04:15:17.541Z,99.99
2018-09-28T04:16:17.381Z,99.99
2018-09-28T04:17:17.360Z,99.99
2018-09-28T04:18:17.336Z,99.99
2018-09-28T04:19:17.318Z,99.99
2018-09-28T04:20:17.303Z,99.99
2018-09-28T04:21:17.270Z,99.99
2018-09-28T04:22:17.253Z,99.99
2018-09-28T04:23:17.229Z,99.99
2018-09-28T04:24:17.232Z,99.99
2018-09-28T04:25:17.190Z,99.99
2018-09-28T04:26:17.170Z,99.99
2018-09-28T04:27:17.145Z,99.99
2018-09-28T04:28:17.122Z,99.99
2018-09-28T04:29:17.106Z,99.99
2018-09-28T04:30:17.081Z,99.99
2018-09-28T04:31:17.059Z,99.99
2018-09-28T04:32:17.045Z,99.99
2018-09-28T04:33:17.019Z,99.99
2018-09-28T04:34:16.993Z,99.99
2018-09-28T04:35:19.530Z,99.99
2018-09-28T04:36:16.953Z,99.99
2018-09-28T04:37:16.934Z,99.99
2018-09-28T04:38:16.910Z,99.99
2018-09-28T04:39:16.893Z,99.99
2018-09-28T04:40:16.866Z,99.99
2018-09-28T04:41:16.845Z,99.99
2018-09-28T04:42:16.821Z,99.99
2018-09-28T04:43:16.802Z,99.99
2018-09-28T04:44:16.785Z,99.99
2018-09-28T04:45:16.848Z,99.99
2018-09-28T04:46:16.743Z,99.99
2018-09-28T04:47:16.719Z,99.99
2018-09-28T04:48:16.700Z,99.99
2018-09-28T04:49:16.676Z,99.99
2018-09-28T04:50:16.655Z,99.99
2018-09-28T04:51:16.633Z,99.99
2018-09-28T04:52:16.608Z,99.99
2018-09-28T04:53:16.592Z,99.99
2018-09-28T04:54:16.569Z,99.99
2018-09-28T04:55:16.549Z,99.99
2018-09-28T04:56:16.526Z,99.99
2018-09-28T04:57:16.506Z,99.99
2018-09-28T04:58:16.483Z,99.99
2018-09-28T04:59:16.465Z,99.99
2018-09-28T05:00:16.439Z,99.99
2018-09-28T05:01:16.420Z,99.99
2018-09-28T05:02:16.397Z,99.99
2018-09-28T05:03:16.375Z,99.99
2018-09-28T05:04:16.357Z,99.99
2018-09-28T05:05:16.335Z,99.99
2018-09-28T05:06:16.311Z,99.99
2018-09-28T05:07:16.291Z,99.99
2018-09-28T05:08:16.269Z,99.99
2018-09-28T05:09:16.247Z,99.99
2018-09-28T05:10:16.227Z,99.99
2018-09-28T05:11:16.209Z,99.99
2018-09-28T05:12:16.185Z,99.99
2018-09-28T05:13:16.162Z,99.99
2018-09-28T05:14:16.179Z,99.99
2018-09-28T05:15:16.121Z,99.99
2018-09-28T05:16:16.099Z,99.99
2018-09-28T05:17:16.081Z,99.99
2018-09-28T05:18:16.057Z,99.99
2018-09-28T05:19:16.037Z,99.99
2018-09-28T05:20:16.012Z,99.99
2018-09-28T05:21:15.995Z,99.99
2018-09-28T05:22:15.973Z,99.99
2018-09-28T05:23:15.949Z,99.99
2018-09-28T05:24:15.927Z,99.99
2018-09-28T05:25:15.953Z,99.99
2018-09-28T05:26:15.886Z,99.99
2018-09-28T05:27:15.866Z,99.99
2018-09-28T05:28:15.849Z,99.99
2018-09-28T05:29:15.823Z,99.99
2018-09-28T05:30:15.805Z,99.99
2018-09-28T05:31:15.907Z,99.99
2018-09-28T05:32:15.974Z,99.99
2018-09-28T05:33:15.739Z,99.99
2018-09-28T05:34:15.717Z,99.99
2018-09-28T05:35:15.704Z,99.37
2018-09-28T05:36:15.684Z,98.23
2018-09-28T05:37:15.678Z,99.57
2018-09-28T05:38:15.638Z,99.99
2018-09-28T05:39:15.619Z,99.08
2018-09-28T05:40:15.592Z,98.61
2018-09-28T05:41:15.570Z,98.47
2018-09-28T05:42:15.553Z,99.23
2018-09-28T05:43:15.530Z,98.57
2018-09-28T05:44:15.531Z,98.75
2018-09-28T05:45:15.490Z,98.85
2018-09-28T05:46:15.508Z,98.18
2018-09-28T05:47:15.455Z,97.80
2018-09-28T05:48:15.430Z,97.71
2018-09-28T05:49:15.408Z,96.94
2018-09-28T05:50:15.385Z,97.52
2018-09-28T05:51:15.419Z,97.80
2018-09-28T05:52:15.342Z,97.03
2018-09-28T05:53:15.325Z,97.42
2018-09-28T05:54:15.306Z,97.47
2018-09-28T05:55:15.292Z,96.66
2018-09-28T05:56:15.261Z,96.51
2018-09-28T05:57:15.246Z,96.61
2018-09-28T05:58:15.225Z,96.70
2018-09-28T05:59:15.202Z,97.47
2018-09-28T06:00:15.181Z,96.80
2018-09-28T06:01:15.157Z,96.80
2018-09-28T06:02:15.147Z,96.99
2018-09-28T06:03:15.117Z,96.89
2018-09-28T06:04:15.107Z,97.08
2018-09-28T06:05:15.081Z,96.22
2018-09-28T06:06:15.062Z,96.03
2018-09-28T06:07:15.047Z,95.56
2018-09-28T06:08:15.021Z,95.27
2018-09-28T06:09:15.006Z,96.13
2018-09-28T06:10:14.981Z,96.80
2018-09-28T06:11:14.966Z,96.42
2018-09-28T06:12:14.937Z,96.42
2018-09-28T06:13:14.919Z,96.03
2018-09-28T06:14:14.898Z,96.84
2018-09-28T06:15:14.876Z,96.03
2018-09-28T06:16:14.859Z,96.51
2018-09-28T06:17:14.840Z,96.51
2018-09-28T06:19:14.821Z,96.18
2018-09-28T06:20:14.775Z,96.18
2018-09-28T06:21:14.756Z,96.37
2018-09-28T06:22:14.730Z,96.27
2018-09-28T06:23:14.713Z,96.66
2018-09-28T06:24:14.814Z,96.37
2018-09-28T06:25:14.674Z,95.70
2018-09-28T06:26:14.655Z,96.56
2018-09-28T06:27:14.628Z,96.08
2018-09-28T06:28:14.617Z,96.27
2018-09-28T06:29:14.595Z,95.41
2018-09-28T06:30:14.608Z,95.70
2018-09-28T06:31:14.550Z,95.89
2018-09-28T06:32:14.542Z,95.32
2018-09-28T06:33:14.513Z,95.03
2018-09-28T06:34:14.493Z,94.74
2018-09-28T06:35:14.471Z,94.93
2018-09-28T06:36:14.465Z,95.03
2018-09-28T06:37:14.431Z,95.32
2018-09-28T06:38:14.414Z,94.93
2018-09-28T06:39:14.390Z,95.12
2018-09-28T06:40:14.374Z,95.03
2018-09-28T06:41:14.352Z,94.55
2018-09-28T06:42:14.365Z,94.26
2018-09-28T06:43:14.310Z,94.26
2018-09-28T06:44:14.292Z,93.98
2018-09-28T06:45:14.270Z,93.98
2018-09-28T06:46:14.258Z,94.17
2018-09-28T06:47:14.235Z,93.50
2018-09-28T06:48:14.294Z,93.35
2018-09-28T06:49:14.197Z,93.12
2018-09-28T06:50:14.177Z,93.26
2018-09-28T06:51:14.214Z,93.50
2018-09-28T06:52:14.135Z,92.78
2018-09-28T06:53:14.120Z,93.16
2018-09-28T06:54:14.155Z,92.21
2018-09-28T06:55:14.075Z,91.06
2018-09-28T06:56:14.061Z,91.06
2018-09-28T06:57:14.034Z,90.67
2018-09-28T06:58:14.063Z,90.77
2018-09-28T06:59:13.997Z,89.53
2018-09-28T07:00:14.040Z,89.62
2018-09-28T07:01:13.959Z,88.57
2018-09-28T07:02:13.935Z,87.71
2018-09-28T07:03:13.921Z,86.47
2018-09-28T07:04:13.910Z,86.57
2018-09-28T07:05:13.881Z,86.28
2018-09-28T07:06:13.894Z,86.37
2018-09-28T07:07:13.840Z,85.80
2018-09-28T07:08:13.823Z,85.46
2018-09-28T07:09:13.826Z,84.69
2018-09-28T07:10:13.783Z,81.73
2018-09-28T07:11:13.760Z,79.52
2018-09-28T07:12:13.755Z,78.13
2018-09-28T07:13:13.723Z,76.21
2018-09-28T07:14:13.706Z,75.77
2018-09-28T07:15:13.691Z,75.01
2018-09-28T07:16:13.700Z,74.15
2018-09-28T07:17:13.648Z,73.76
2018-09-28T07:18:13.649Z,72.61
2018-09-28T07:19:13.618Z,72.13
2018-09-28T07:20:13.597Z,72.52
2018-09-28T07:21:13.570Z,72.23
2018-09-28T07:22:13.550Z,72.03
2018-09-28T07:23:13.536Z,71.21
2018-09-28T07:24:13.526Z,69.96
2018-09-28T07:25:13.537Z,69.48
2018-09-28T07:26:13.476Z,69.87
2018-09-28T07:27:13.460Z,68.91
2018-09-28T07:28:13.439Z,69.10
2018-09-28T07:29:13.427Z,68.91
2018-09-28T07:30:13.427Z,69.68
2018-09-28T07:31:13.382Z,69.90
2018-09-28T07:32:13.370Z,69.04
2018-09-28T07:33:13.348Z,67.16
2018-09-28T07:34:13.330Z,66.67
2018-09-28T07:35:13.308Z,65.75
2018-09-28T07:36:13.340Z,65.40
2018-09-28T07:37:13.560Z,64.56
2018-09-28T07:38:13.258Z,64.09
2018-09-28T07:39:13.241Z,64.18
2018-09-28T07:40:13.221Z,63.06
2018-09-28T07:41:13.212Z,62.48
2018-09-28T07:42:13.217Z,62.77
2018-09-28T07:43:13.167Z,63.35
2018-09-28T07:44:13.152Z,62.32
2018-09-28T07:45:13.134Z,61.71
2018-09-28T07:46:13.114Z,61.33
2018-09-28T07:47:13.098Z,61.33
2018-09-28T07:48:13.096Z,62.48
2018-09-28T07:49:13.133Z,61.52
2018-09-28T07:50:13.044Z,61.52
2018-09-28T07:51:13.030Z,60.91
2018-09-28T07:52:13.014Z,61.87
2018-09-28T07:53:12.994Z,62.74
2018-09-28T07:54:12.974Z,63.28
2018-09-28T07:55:12.963Z,63.09
2018-09-28T07:56:12.945Z,62.90
2018-09-28T07:57:12.927Z,62.71
2018-09-28T07:58:12.911Z,62.93
2018-09-28T07:59:12.896Z,62.45
2018-09-28T08:00:12.878Z,62.16
2018-09-28T08:01:12.860Z,62.87
2018-09-28T08:02:12.844Z,62.10
2018-09-28T08:03:12.829Z,61.55
2018-09-28T08:04:12.816Z,61.55
2018-09-28T08:05:12.794Z,60.33
2018-09-28T08:06:12.781Z,59.82
2018-09-28T08:07:12.764Z,59.85
2018-09-28T08:08:12.746Z,59.17
2018-09-28T08:09:12.734Z,58.50
2018-09-28T08:10:12.715Z,58.02
2018-09-28T08:11:12.710Z,58.02
2018-09-28T08:12:12.683Z,57.95
2018-09-28T08:13:12.668Z,57.95
2018-09-28T08:14:12.657Z,57.79
2018-09-28T08:15:12.641Z,57.50
2018-09-28T08:16:12.623Z,57.31
2018-09-28T08:17:12.614Z,55.87
2018-09-28T08:18:12.603Z,55.67
2018-09-28T08:19:12.585Z,55.00
2018-09-28T08:20:12.564Z,55.12
2018-09-28T08:21:12.548Z,55.22
2018-09-28T08:22:12.529Z,53.48
2018-09-28T08:23:12.577Z,54.25
2018-09-28T08:24:12.504Z,53.67
2018-09-28T08:25:12.492Z,52.91
2018-09-28T08:26:12.489Z,52.78
2018-09-28T08:27:12.460Z,52.97
2018-09-28T08:28:12.454Z,52.75
2018-09-28T08:29:12.441Z,53.14
2018-09-28T08:30:12.420Z,54.65
2018-09-28T08:31:12.427Z,54.36
2018-09-28T08:32:12.395Z,54.56
2018-09-28T08:33:12.386Z,54.27
2018-09-28T08:34:12.363Z,54.85
2018-09-28T08:35:12.357Z,54.08
2018-09-28T08:36:12.337Z,53.40
2018-09-28T08:37:12.323Z,53.50
2018-09-28T08:38:12.308Z,52.63
2018-09-28T08:39:12.291Z,52.63
2018-09-28T08:40:12.276Z,52.75
2018-09-28T08:41:12.262Z,52.66
2018-09-28T08:42:12.252Z,52.87
2018-09-28T08:43:12.238Z,51.62
2018-09-28T08:44:12.221Z,50.66
2018-09-28T08:45:12.210Z,49.70
2018-09-28T08:46:12.192Z,49.19
2018-09-28T08:47:12.182Z,48.81
2018-09-28T08:48:12.167Z,49.48
2018-09-28T08:49:12.177Z,47.36
2018-09-28T08:50:12.135Z,48.06
2018-09-28T08:51:12.124Z,48.16
2018-09-28T08:52:12.113Z,49.51
2018-09-28T08:53:12.093Z,49.32
2018-09-28T08:54:12.088Z,49.02
2018-09-28T08:55:12.066Z,48.08
2018-09-28T08:56:12.056Z,47.51
2018-09-28T08:57:12.040Z,48.11
2018-09-28T08:58:12.028Z,49.46
2018-09-28T08:59:12.015Z,48.21
2018-09-28T09:00:12.002Z,49.43
2018-09-28T09:01:11.988Z,49.15
2018-09-28T09:02:12.035Z,48.76
2018-09-28T09:03:11.954Z,48.18
2018-09-28T09:04:11.941Z,46.93
2018-09-28T09:05:11.925Z,47.31
2018-09-28T09:06:11.919Z,48.16
2018-09-28T09:07:11.901Z,48.06
2018-09-28T09:08:11.890Z,47.97
2018-09-28T09:09:11.875Z,48.83
2018-09-28T09:10:11.860Z,48.74
2018-09-28T09:11:11.851Z,48.43
2018-09-28T09:12:11.835Z,49.58
2018-09-28T09:13:11.819Z,49.19
2018-09-28T09:14:11.810Z,48.52
2018-09-28T09:15:11.794Z,48.90
2018-09-28T09:16:11.787Z,48.61
2018-09-28T09:17:11.765Z,48.59
2018-09-28T09:18:11.938Z,48.49
2018-09-28T09:19:11.740Z,48.59
2018-09-28T09:20:11.726Z,48.61
2018-09-28T09:21:11.710Z,48.03
2018-09-28T09:22:11.700Z,48.64
2018-09-28T09:23:11.688Z,47.03
2018-09-28T09:24:11.674Z,45.20
2018-09-28T09:25:11.660Z,45.21
2018-09-28T09:26:11.647Z,44.76
2018-09-28T09:27:11.632Z,43.41
2018-09-28T09:28:11.623Z,42.54
2018-09-28T09:29:11.612Z,42.66
2018-09-28T09:30:11.652Z,43.24
2018-09-28T09:31:11.582Z,42.75
2018-09-28T09:32:11.566Z,41.60
2018-09-28T09:33:11.560Z,42.56
2018-09-28T09:34:11.544Z,42.18
2018-09-28T09:35:11.529Z,43.41
2018-09-28T09:36:11.517Z,42.44
2018-09-28T09:37:11.505Z,44.66
2018-09-28T09:38:11.491Z,43.79
2018-09-28T09:39:11.480Z,43.48
2018-09-28T09:40:11.469Z,43.38
2018-09-28T09:41:11.453Z,44.15
2018-09-28T09:42:11.438Z,44.25
2018-09-28T09:43:11.426Z,44.54
2018-09-28T09:44:11.416Z,44.62
2018-09-28T09:45:11.407Z,44.13
2018-09-28T09:46:11.392Z,44.52
2018-09-28T09:47:11.381Z,45.00
2018-09-28T09:48:11.367Z,44.98
2018-09-28T09:49:11.354Z,44.69
2018-09-28T09:50:11.342Z,45.17
2018-09-28T09:51:11.338Z,45.65
2018-09-28T09:52:11.320Z,45.46
2018-09-28T09:53:11.302Z,46.64
2018-09-28T09:54:11.294Z,44.54
2018-09-28T09:55:11.279Z,44.06
2018-09-28T09:56:11.281Z,44.54
2018-09-28T09:57:11.260Z,44.27
2018-09-28T09:58:11.259Z,43.89
2018-09-28T09:59:11.234Z,44.18
2018-09-28T10:00:11.214Z,44.85
2018-09-28T10:01:11.209Z,43.72
2018-09-28T10:02:11.199Z,42.10
2018-09-28T10:03:11.190Z,41.44
2018-09-28T10:04:11.172Z,41.83
2018-09-28T10:05:11.156Z,41.56
2018-09-28T10:06:11.146Z,39.32
2018-09-28T10:07:11.134Z,39.03
2018-09-28T10:08:11.121Z,39.22
2018-09-28T10:09:11.117Z,38.83
2018-09-28T10:10:11.100Z,39.32
2018-09-28T10:11:11.106Z,38.76
2018-09-28T10:12:11.136Z,38.66
2018-09-28T10:13:11.064Z,38.37
2018-09-28T10:14:11.052Z,39.16
2018-09-28T10:15:11.050Z,38.58
2018-09-28T10:16:11.035Z,40.52
2018-09-28T10:17:11.019Z,39.01
2018-09-28T10:18:11.012Z,38.62
2018-09-28T10:19:11.052Z,36.88
2018-09-28T10:20:10.990Z,38.04
2018-09-28T10:21:10.989Z,35.93
2018-09-28T10:22:10.969Z,36.12
2018-09-28T10:23:10.958Z,36.22
2018-09-28T10:24:10.948Z,34.38
2018-09-28T10:25:10.941Z,34.96
2018-09-28T10:26:10.928Z,35.36
2018-09-28T10:27:10.923Z,34.99
2018-09-28T10:28:10.984Z,35.09
2018-09-28T10:29:10.900Z,34.72
2018-09-28T10:30:10.884Z,33.76
2018-09-28T10:31:10.882Z,33.96
2018-09-28T10:32:10.869Z,32.49
2018-09-28T10:33:10.864Z,31.81
2018-09-28T10:34:10.878Z,33.36
2018-09-28T10:35:10.842Z,32.39
2018-09-28T10:36:10.832Z,33.07
2018-09-28T10:37:10.831Z,33.07
2018-09-28T10:38:10.825Z,33.17
2018-09-28T10:39:10.832Z,34.56
2018-09-28T10:40:10.813Z,33.29
2018-09-28T10:41:10.816Z,32.92
2018-09-28T10:42:10.780Z,31.57
2018-09-28T10:43:10.776Z,32.91
2018-09-28T10:44:10.766Z,32.13
2018-09-28T10:45:10.812Z,32.52
2018-09-28T10:46:10.752Z,32.73
2018-09-28T10:47:10.762Z,32.94
2018-09-28T10:48:10.734Z,31.58
2018-09-28T10:49:10.728Z,31.18
2018-09-28T10:50:10.722Z,30.12
2018-09-28T10:51:10.760Z,30.41
2018-09-28T10:52:10.932Z,29.08
2018-09-28T10:53:10.779Z,29.28
2018-09-28T10:54:10.692Z,30.17
2018-09-28T10:55:10.688Z,28.90
2018-09-28T10:56:10.679Z,29.39
2018-09-28T10:57:10.675Z,28.64
2018-09-28T10:58:10.667Z,26.98
2018-09-28T10:59:10.660Z,27.28
2018-09-28T11:00:10.657Z,26.89
2018-09-28T11:01:10.644Z,28.07
2018-09-28T11:02:10.642Z,26.61
2018-09-28T11:03:10.643Z,27.39
2018-09-28T11:04:10.650Z,27.19
2018-09-28T11:05:10.622Z,26.80
2018-09-28T11:06:10.614Z,26.42
2018-09-28T11:07:10.607Z,25.54
2018-09-28T11:08:10.609Z,24.30
2018-09-28T11:09:10.621Z,23.93
2018-09-28T11:10:10.624Z,24.51
2018-09-28T11:11:10.588Z,24.13
2018-09-28T11:12:10.582Z,24.24
2018-09-28T11:13:10.576Z,23.74
2018-09-28T11:14:10.571Z,23.54
2018-09-28T11:15:10.609Z,23.65
2018-09-28T11:16:10.600Z,22.66
2018-09-28T11:17:10.553Z,23.85
2018-09-28T11:18:10.553Z,23.16
2018-09-28T11:19:10.552Z,23.76
2018-09-28T11:20:10.537Z,21.42
2018-09-28T11:21:10.585Z,22.30
2018-09-28T11:22:10.525Z,22.21
2018-09-28T11:23:10.520Z,21.53
2018-09-28T11:24:10.517Z,21.66
2018-09-28T11:25:10.516Z,19.90
2018-09-28T11:26:10.505Z,18.82
2018-09-28T11:27:10.572Z,18.33
2018-09-28T11:28:10.498Z,18.91
2018-09-28T11:29:10.493Z,19.29
2018-09-28T11:30:10.493Z,18.99
2018-09-28T11:31:10.485Z,19.98
2018-09-28T11:32:10.481Z,20.25
2018-09-28T11:33:10.494Z,19.84
2018-09-28T11:34:10.473Z,21.31
2018-09-28T11:35:10.465Z,21.51
2018-09-28T11:36:10.466Z,21.33
2018-09-28T11:37:10.459Z,19.77
2018-09-28T11:38:10.458Z,20.86
2018-09-28T11:39:10.469Z,19.29
2018-09-28T11:40:10.445Z,19.38
2018-09-28T11:41:10.445Z,19.18
2018-09-28T11:42:10.438Z,19.86
2018-09-28T11:43:10.489Z,19.67
2018-09-28T11:44:10.437Z,19.85
2018-09-28T11:45:10.453Z,20.34
2018-09-28T11:46:10.426Z,21.42
2018-09-28T11:47:10.420Z,21.44
2018-09-28T11:48:10.418Z,21.14
2018-09-28T11:49:10.494Z,21.64
2018-09-28T11:50:10.415Z,21.66
2018-09-28T11:51:10.410Z,19.70
2018-09-28T11:52:10.405Z,20.50
2018-09-28T11:53:10.401Z,19.33
2018-09-28T11:54:10.401Z,18.75
2018-09-28T11:55:10.401Z,19.54
2018-09-28T11:56:10.391Z,17.77
2018-09-28T11:57:10.462Z,17.38
2018-09-28T11:58:10.381Z,16.59
2018-09-28T11:59:10.383Z,17.18
2018-09-28T12:00:10.386Z,17.65
2018-09-28T12:01:10.371Z,18.04
2018-09-28T12:02:10.372Z,18.33
2018-09-28T12:03:10.436Z,18.13
2018-09-28T12:04:10.374Z,17.74
2018-09-28T12:05:10.410Z,17.05
2018-09-28T12:06:10.431Z,18.72
2018-09-28T12:07:10.424Z,18.04
2018-09-28T12:08:10.357Z,18.13
2018-09-28T12:09:10.361Z,18.43
2018-09-28T12:10:10.352Z,18.13
2018-09-28T12:11:10.351Z,18.93
2018-09-28T12:12:10.462Z,18.83
2018-09-28T12:13:10.345Z,18.54
2018-09-28T12:14:10.342Z,17.77
2018-09-28T12:15:10.351Z,16.97
2018-09-28T12:16:10.346Z,17.65
2018-09-28T12:17:10.334Z,18.12
2018-09-28T12:18:10.400Z,18.98
2018-09-28T12:19:10.329Z,19.47
2018-09-28T12:20:10.325Z,20.04
2018-09-28T12:21:10.392Z,21.49
2018-09-28T12:22:10.325Z,20.70
2018-09-28T12:23:10.317Z,21.00
2018-09-28T12:24:10.347Z,21.47
2018-09-28T12:25:10.317Z,21.45
2018-09-28T12:26:10.310Z,21.15
2018-09-28T12:27:10.358Z,23.08
2018-09-28T12:28:10.303Z,23.56
2018-09-28T12:29:10.306Z,23.27
2018-09-28T12:30:10.325Z,22.96
2018-09-28T12:31:10.293Z,24.50
2018-09-28T12:32:10.290Z,24.58
2018-09-28T12:33:10.304Z,24.49
2018-09-28T12:34:10.328Z,25.64
2018-09-28T12:35:10.279Z,25.24
2018-09-28T12:36:10.341Z,25.60
2018-09-28T12:37:10.269Z,26.65
2018-09-28T12:38:10.273Z,27.62
2018-09-28T12:39:10.321Z,28.50
2018-09-28T12:40:10.264Z,27.61
2018-09-28T12:41:10.259Z,27.60
2018-09-28T12:42:10.287Z,27.97
2018-09-28T12:43:10.247Z,29.80
2018-09-28T12:44:10.306Z,29.41
2018-09-28T12:45:10.289Z,30.17
2018-09-28T12:46:10.231Z,30.55
2018-09-28T12:47:10.225Z,31.04
2018-09-28T12:48:10.268Z,30.54
2018-09-28T12:49:10.214Z,31.22
2018-09-28T12:50:10.219Z,30.91
2018-09-28T12:51:10.207Z,30.82
2018-09-28T12:52:10.195Z,31.01
2018-09-28T12:53:10.188Z,30.91